< < Back
Terminal Aerodrome Forecast


Current Version              Previous Versions:   1  2  3  4  5  6  7  8  9  

Terminal Aerodrome Forecast

738
FTAK31 PAJN 210500
TAFAHN
TAF
PAHN 210520Z 2106/2206 08008G18KT P6SM VCSH BKN015 BKN080
     FM210800 10006KT P6SM SCT025 BKN060
     FM211000 VRB04KT P6SM SCT050 BKN100
     FM211400 31006KT P6SM SCT030 BKN060
     FM211800 31008KT P6SM BKN050 BKN080
     FM212100 31011KT P6SM VCSH SCT025 BKN050
     FM220300 31008KT P6SM VCSH BKN050 OVC100
      AMD LTD TO CLD VIS AND WIND=

Latest METAR

964
SAUS70 KWBC 211400 RRA
MTRAHN
METAR KAHN 211351Z 31003KT 9SM CLR 15/11 A3002 RMK AO2 SLP163
T01500111


USA.gov is the U.S. government's official web portal to all federal, state and local government web resources and services.